Guss, Iowa
Current Conditions -  °F | °C
As of 7:55 AM on Sunday 25 Jan 2015 (Local Time) from KICL Reporting Station
Unknown Precip Unknown Precip  
Wind Chill: 26°   Ceiling: 1200
Heat Index: 36°   Visibility: 10mi
Dew Point: 34°   Wind: 15mph
Humidity: 93%   Direction: 330°NNW
Pressure: 29.75"   Gusts: 25mph
Location:  40.9427°N, 94.8714°W
Report Text: KICL 251355Z AUTO 33013G22KT 10SM -UP OVC012 02/01 A2975 RMK AO2
Loading
Personal Weather Stations






























Interactive Weather Map New forecast layout! Learn more

10-Day Weather Forecast

Advertisements
Track Severe Weather on mobile